Main page
METAR-TAF:

METAR-TAF

Airports :

Dortmund, Germany

Dortmund Airport

latitude: 51-31N, longitude: 007-37E, elevation: 127 m

Current weather observation

The report was made 31 minutes ago, at 04:20 UTC
Wind 15 kt from the South/Southwest
Temperature 10°C
Humidity 66%
Pressure 1010 hPa
Visibility 10 km or more
Broken clouds at a height of 3300 ft

METAR: EDLW 220420Z 20015KT 9999 BKN033 10/04 Q1010

Time: 06:51 (04:51 UTC)

Forecast

The report was made 30 minutes ago, at 04:21 UTC
Forecast valid from 22 at 05 UTC to 22 at 24 UTC
Wind 15 kt from the South/Southwest
Visibility 10 km or more
Broken clouds at a height of 3000 ft
Temporary
from 22 at 05 UTC to 22 at 09 UTC
Wind 20 kt from the South/Southwest with gusts up to 30 kt
Visibility: 4500 m
Broken clouds at a height of 1300 ft
rain, drizzle
Temporary
from 22 at 09 UTC to 22 at 15 UTC
Wind 15 kt from the Southwest with gusts up to 25 kt

TAF: EDLW 220421Z 2205/2224 20015KT 9999 BKN030 TEMPO 2205/2209 20020G30KT 4500 RADZ BKN013 TEMPO 2209/2215 23015G25KT

Weather observations and forecasts of more than 4000 airports (METAR and TAF reports).

The available stations are represented by yellow and red dots on the map.

Hover mouse over dot to see the name of the station.

Then click to see weather observations and forecasts.

To change the map : click on the green buttons with a black cross to zoom in, on the green button with a dash to zoom out, or on the green arrows for adjacent maps.


METAR-TAF: